Time;durP1;ratioP1;P1;durP2;ratioP2;P2;SDS_P1;SDS_P2;PMS_P1;PMS_P2;Temp;Humidity;BMP_temperature;BMP_pressure;BME280_temperature;BME280_humidity;BME280_pressure;Samples;Min_cycle;Max_cycle;Signal;HPM_P1;HPM_P2
2021/10/28 00:14:17;;;;;;;9.10;4.90;;;;;;;13.41;60.69;101954.69;4969423;28;124098;-66
2021/10/28 00:16:47;;;;;;;8.70;5.13;;;;;;;13.40;60.63;101952.94;5000657;28;123825;-66
2021/10/28 00:19:15;;;;;;;9.35;4.97;;;;;;;13.39;60.71;101956.53;5034165;28;108977;-67
2021/10/28 00:21:43;;;;;;;10.13;5.40;;;;;;;13.39;60.58;101961.84;5031565;28;109961;-67
2021/10/28 00:24:13;;;;;;;8.07;5.57;;;;;;;13.38;60.64;101954.78;5011954;28;124102;-66
2021/10/28 00:26:46;;;;;;;7.90;5.30;;;;;;;13.36;60.69;101946.00;5012110;28;123781;-67
2021/10/28 00:29:17;;;;;;;8.80;5.30;;;;;;;13.36;60.92;101945.13;5032775;28;109193;-66
2021/10/28 00:31:47;;;;;;;8.30;4.68;;;;;;;13.34;60.82;101952.31;5033541;28;109196;-67
2021/10/28 00:34:15;;;;;;;10.95;5.07;;;;;;;13.32;60.77;101949.72;5028747;28;124063;-67
2021/10/28 00:36:45;;;;;;;8.65;5.10;;;;;;;13.31;60.78;101947.97;5026045;28;122704;-67
2021/10/28 00:39:13;;;;;;;9.75;5.38;;;;;;;13.29;60.64;101939.16;5028866;28;108883;-67
2021/10/28 00:41:41;;;;;;;7.95;5.07;;;;;;;13.27;60.75;101941.00;5023522;28;108148;-66
2021/10/28 00:44:10;;;;;;;9.73;5.32;;;;;;;13.27;60.85;101935.69;5032946;28;123403;-66
2021/10/28 00:46:40;;;;;;;7.50;5.00;;;;;;;13.24;60.79;101935.78;5048581;27;122616;-67
2021/10/28 00:49:10;;;;;;;10.15;5.45;;;;;;;13.22;60.84;101937.63;5028470;28;109354;-67
2021/10/28 00:51:38;;;;;;;7.22;4.82;;;;;;;13.20;60.75;101935.06;5033500;28;109991;-67
2021/10/28 00:54:06;;;;;;;7.90;5.00;;;;;;;13.19;60.60;101937.78;5025727;28;125110;-67
2021/10/28 00:56:34;;;;;;;8.98;5.03;;;;;;;13.16;60.58;101929.91;5028463;28;123998;-67
2021/10/28 00:59:01;;;;;;;7.95;5.18;;;;;;;13.14;60.71;101934.41;5020587;28;108626;-68
2021/10/28 01:01:29;;;;;;;10.25;5.43;;;;;;;13.11;60.92;101930.09;5033789;28;108874;-68
2021/10/28 01:03:57;;;;;;;8.93;5.32;;;;;;;13.10;60.65;101938.13;5032842;28;124180;-68
2021/10/28 01:06:25;;;;;;;12.70;5.30;;;;;;;13.07;60.63;101938.22;5026685;28;124209;-68
2021/10/28 01:08:52;;;;;;;10.50;5.22;;;;;;;13.04;60.73;101933.91;5011897;28;110824;-68
2021/10/28 01:11:20;;;;;;;9.15;5.05;;;;;;;13.00;60.87;101933.16;5029856;28;109682;-68
2021/10/28 01:13:47;;;;;;;8.60;5.28;;;;;;;12.98;60.80;101929.69;5034562;28;124495;-67
2021/10/28 01:16:14;;;;;;;9.60;5.40;;;;;;;12.95;60.77;101924.47;5023277;28;124735;-68
2021/10/28 01:18:42;;;;;;;9.52;5.88;;;;;;;12.93;60.83;101925.47;5031683;28;109000;-67
2021/10/28 01:21:09;;;;;;;9.00;5.70;;;;;;;12.89;60.90;101924.72;5033907;28;109017;-68
2021/10/28 01:23:41;;;;;;;8.60;5.57;;;;;;;12.88;61.04;101933.59;5037456;28;121723;-67
2021/10/28 01:26:13;;;;;;;9.27;5.55;;;;;;;12.87;60.83;101937.19;5038034;28;123817;-67
2021/10/28 01:28:50;;;;;;;9.82;5.40;;;;;;;12.85;60.95;101933.72;5017666;28;109372;-67
2021/10/28 01:31:20;;;;;;;10.07;5.75;;;;;;;12.84;60.94;101937.31;5030350;28;108903;-67
2021/10/28 01:33:49;;;;;;;10.73;6.13;;;;;;;12.82;61.03;101933.84;5034941;28;124378;-67
2021/10/28 01:36:20;;;;;;;11.43;6.20;;;;;;;12.81;60.92;101932.97;5035864;28;123894;-67
2021/10/28 01:38:49;;;;;;;11.70;5.95;;;;;;;12.79;60.93;101939.25;5023467;28;108831;-68
2021/10/28 01:41:17;;;;;;;9.18;5.85;;;;;;;12.77;60.91;101931.34;5034871;28;108877;-64
2021/10/28 01:43:45;;;;;;;11.15;5.55;;;;;;;12.76;60.88;101928.75;5019965;28;124381;-64
2021/10/28 01:46:13;;;;;;;11.32;5.63;;;;;;;12.73;61.04;101929.72;5035601;28;124584;-64
2021/10/28 01:48:41;;;;;;;11.30;6.13;;;;;;;12.72;61.08;101927.13;5035021;28;109178;-64
2021/10/28 01:51:09;;;;;;;12.23;6.13;;;;;;;12.68;61.02;101930.81;5036213;28;109504;-64
2021/10/28 01:53:42;;;;;;;11.75;6.30;;;;;;;12.65;60.96;101924.69;5037917;28;123989;-64
2021/10/28 01:56:10;;;;;;;10.57;6.20;;;;;;;12.64;61.17;101922.97;5032978;28;123921;-64
2021/10/28 01:58:38;;;;;;;10.23;5.95;;;;;;;12.64;61.13;101909.66;5029060;28;110192;-64
2021/10/28 02:01:06;;;;;;;10.15;6.57;;;;;;;12.64;60.81;101920.31;5031232;28;109549;-64
2021/10/28 02:03:35;;;;;;;10.48;5.88;;;;;;;12.61;61.06;101909.78;5036300;28;123078;-63
2021/10/28 02:06:03;;;;;;;11.02;6.68;;;;;;;12.60;61.12;101912.47;5036425;28;124680;-64
2021/10/28 02:08:31;;;;;;;11.52;6.25;;;;;;;12.57;61.18;101913.47;5035069;28;109386;-64
2021/10/28 02:10:58;;;;;;;13.30;6.53;;;;;;;12.56;61.25;101911.72;5025745;28;107866;-65
2021/10/28 02:13:26;;;;;;;12.30;6.80;;;;;;;12.53;61.25;101901.22;5036196;28;122171;-64
2021/10/28 02:15:54;;;;;;;10.25;6.55;;;;;;;12.51;61.15;101903.06;5025296;28;124213;-64
2021/10/28 02:18:22;;;;;;;12.43;6.68;;;;;;;12.50;61.19;101903.97;5031568;28;109531;-63
2021/10/28 02:20:51;;;;;;;12.45;6.80;;;;;;;12.49;61.33;101894.28;5034352;28;108818;-64
2021/10/28 02:23:18;;;;;;;11.68;6.78;;;;;;;12.48;61.32;101897.84;5031132;28;124816;-64
2021/10/28 02:25:46;;;;;;;13.55;7.00;;;;;;;12.47;61.29;101890.81;5036896;27;123896;-64
2021/10/28 02:28:14;;;;;;;11.80;7.20;;;;;;;12.47;61.20;101896.13;5034177;28;109684;-63
2021/10/28 02:30:41;;;;;;;11.50;7.13;;;;;;;12.47;61.40;101885.50;5000937;28;107792;-67
2021/10/28 02:33:08;;;;;;;10.88;6.47;;;;;;;12.47;61.25;101901.44;5017709;28;124858;-67
2021/10/28 02:35:35;;;;;;;13.75;6.97;;;;;;;12.45;61.24;101893.53;5027349;28;123686;-68
2021/10/28 02:38:03;;;;;;;11.15;6.43;;;;;;;12.43;61.20;101878.53;5024513;28;109555;-67
2021/10/28 02:40:31;;;;;;;13.90;7.43;;;;;;;12.41;61.40;101886.59;5034563;28;109126;-67
2021/10/28 02:42:59;;;;;;;11.98;7.38;;;;;;;12.40;61.11;101881.34;5024675;28;122855;-68
2021/10/28 02:45:26;;;;;;;12.80;7.38;;;;;;;12.38;61.24;101880.53;5029714;28;122589;-68
2021/10/28 02:47:54;;;;;;;13.68;6.80;;;;;;;12.35;61.27;101870.00;5034425;28;110241;-68
2021/10/28 02:50:21;;;;;;;17.75;6.93;;;;;;;12.33;61.41;101871.84;5036683;28;109904;-67
2021/10/28 02:52:49;;;;;;;13.13;7.43;;;;;;;12.32;61.39;101870.09;5036493;28;123753;-67
2021/10/28 02:55:16;;;;;;;15.02;7.60;;;;;;;12.31;61.37;101868.38;5031850;28;123786;-68
2021/10/28 02:57:45;;;;;;;14.15;7.47;;;;;;;12.29;61.35;101864.91;5034173;28;108757;-67
2021/10/28 03:00:13;;;;;;;12.65;7.60;;;;;;;12.27;61.38;101863.16;5028365;28;109144;-67
2021/10/28 03:02:41;;;;;;;14.35;7.50;;;;;;;12.26;61.47;101855.25;5036315;28;124901;-67
2021/10/28 03:05:10;;;;;;;13.65;8.00;;;;;;;12.24;61.43;101857.97;5025643;28;123963;-67
2021/10/28 03:07:38;;;;;;;12.27;7.40;;;;;;;12.21;61.37;101852.75;5035276;28;109069;-67
2021/10/28 03:10:08;;;;;;;12.23;7.55;;;;;;;12.19;61.29;101849.31;5034492;28;109103;-67
2021/10/28 03:12:38;;;;;;;13.25;7.50;;;;;;;12.17;61.39;101845.84;5024854;28;124383;-72
2021/10/28 03:15:08;;;;;;;13.23;7.43;;;;;;;12.15;61.57;101847.69;5030418;28;124310;-67
2021/10/28 03:25:40;;;;;;;15.00;7.82;;;;;;;12.07;61.41;101844.41;5005544;28;124509;-67
2021/10/28 03:28:13;;;;;;;16.42;8.13;;;;;;;12.03;61.62;101842.78;5032795;28;114259;-68
2021/10/28 03:30:40;;;;;;;14.57;7.85;;;;;;;12.02;61.73;101830.44;5029896;28;114047;-67
2021/10/28 03:33:10;;;;;;;13.43;7.97;;;;;;;12.01;61.60;101834.00;5032610;28;123949;-68
2021/10/28 03:35:38;;;;;;;12.70;7.70;;;;;;;12.00;61.72;101832.28;5032965;27;124030;-67
2021/10/28 03:46:45;;;;;;;15.98;8.25;;;;;;;11.94;61.62;101817.44;5023215;28;124053;-67
2021/10/28 03:57:45;;;;;;;13.63;7.43;;;;;;;11.85;61.75;101813.28;5026281;28;122780;-67
2021/10/28 04:29:39;;;;;;;13.38;6.88;;;;;;;11.58;61.73;101793.00;4995250;28;123896;-64
2021/10/28 04:32:07;;;;;;;12.27;7.03;;;;;;;11.58;61.47;101795.66;5026854;28;115284;-64
2021/10/28 04:34:34;;;;;;;11.52;6.43;;;;;;;11.56;61.55;101790.38;5014819;28;114310;-64
2021/10/28 04:37:02;;;;;;;10.95;6.60;;;;;;;11.56;61.49;101797.50;5028052;28;123921;-64
2021/10/28 04:39:29;;;;;;;10.82;6.88;;;;;;;11.54;61.66;101797.53;5030664;28;124268;-64
2021/10/28 04:41:56;;;;;;;12.25;6.40;;;;;;;11.54;61.78;101794.03;5029718;28;114721;-64
2021/10/28 04:44:25;;;;;;;12.63;6.85;;;;;;;11.53;61.40;101800.22;5020008;28;114332;-64
2021/10/28 04:46:52;;;;;;;15.02;6.38;;;;;;;11.49;61.44;101805.66;5028548;28;122938;-64
2021/10/28 04:49:20;;;;;;;12.80;6.40;;;;;;;11.48;61.45;101803.91;5032438;27;124319;-65
2021/10/28 04:51:47;;;;;;;13.60;7.13;;;;;;;11.47;61.42;101802.19;5017891;28;114105;-64
2021/10/28 04:54:14;;;;;;;12.43;6.78;;;;;;;11.44;61.27;101796.97;5010063;28;114472;-64
2021/10/28 04:56:41;;;;;;;13.63;7.20;;;;;;;11.42;61.29;101801.47;5010486;28;122819;-64
2021/10/28 04:59:09;;;;;;;13.52;6.65;;;;;;;11.41;61.35;101797.06;5013714;28;123962;-64
2021/10/28 05:01:37;;;;;;;14.65;6.75;;;;;;;11.39;61.49;101798.91;5018507;28;114177;-64
2021/10/28 05:04:04;;;;;;;13.07;7.00;;;;;;;11.38;61.55;101796.34;5027944;28;114627;-64
2021/10/28 05:06:32;;;;;;;11.95;6.72;;;;;;;11.36;61.41;101801.69;5028948;28;124674;-64
2021/10/28 05:08:59;;;;;;;15.38;6.90;;;;;;;11.34;61.47;101790.25;5019650;28;124027;-64
2021/10/28 05:11:28;;;;;;;17.08;7.43;;;;;;;11.33;61.69;101791.16;5024704;28;114211;-64
2021/10/28 05:13:55;;;;;;;12.32;6.30;;;;;;;11.31;61.51;101790.34;5020996;28;114011;-65
2021/10/28 05:16:22;;;;;;;14.00;7.60;;;;;;;11.30;61.37;101786.84;5014913;28;123892;-65
2021/10/28 05:18:50;;;;;;;12.73;6.45;;;;;;;11.28;61.76;101787.78;5020109;28;123901;-66
2021/10/28 05:21:18;;;;;;;13.55;7.00;;;;;;;11.28;61.84;101782.47;5014882;28;115920;-65
2021/10/28 05:23:46;;;;;;;14.77;7.43;;;;;;;11.27;61.64;101778.13;5023990;28;115256;-65
2021/10/28 05:26:14;;;;;;;18.05;7.13;;;;;;;11.26;61.69;101781.66;5012142;28;124022;-65
2021/10/28 05:28:41;;;;;;;13.25;6.55;;;;;;;11.26;61.80;101781.66;5016501;28;123299;-64
2021/10/28 05:31:08;;;;;;;14.40;7.20;;;;;;;11.24;61.66;101772.91;5018666;28;114691;-64
2021/10/28 05:33:36;;;;;;;15.15;7.45;;;;;;;11.23;61.72;101776.50;5027394;28;113989;-64
2021/10/28 05:36:04;;;;;;;13.05;6.93;;;;;;;11.21;61.70;101773.03;5031735;28;122813;-64
2021/10/28 05:38:31;;;;;;;15.38;7.47;;;;;;;11.20;61.72;101765.97;5031610;28;123861;-64
2021/10/28 05:40:58;;;;;;;14.93;7.13;;;;;;;11.20;61.78;101766.81;5026632;28;114677;-64
2021/10/28 05:43:25;;;;;;;15.50;7.72;;;;;;;11.20;61.77;101755.38;5024954;28;114308;-66
2021/10/28 05:45:52;;;;;;;17.85;7.45;;;;;;;11.20;62.01;101760.66;5027179;28;124535;-65
2021/10/28 05:48:19;;;;;;;15.65;7.43;;;;;;;11.19;62.14;101754.50;5027007;28;123768;-74
2021/10/28 05:50:47;;;;;;;16.70;7.45;;;;;;;11.20;62.00;101750.06;5012851;28;114113;-65
2021/10/28 05:53:16;;;;;;;14.85;7.32;;;;;;;11.21;61.90;101746.50;5011789;28;113925;-65
2021/10/28 05:55:43;;;;;;;15.15;7.15;;;;;;;11.21;62.26;101743.84;5016071;28;125406;-68
2021/10/28 05:58:10;;;;;;;12.90;7.15;;;;;;;11.22;61.83;101737.63;5013245;28;124319;-69
2021/10/28 06:00:45;;;;;;;14.88;7.30;;;;;;;11.22;62.21;101740.28;5018333;28;113977;-68
2021/10/28 06:03:13;;;;;;;15.75;7.32;;;;;;;11.21;61.65;101744.72;5025799;28;114469;-68
2021/10/28 06:05:41;;;;;;;15.88;7.10;;;;;;;11.22;61.92;101748.22;5023236;28;123232;-68
2021/10/28 06:08:08;;;;;;;16.65;6.72;;;;;;;11.21;61.66;101746.50;5026799;28;124348;-70
2021/10/28 06:10:36;;;;;;;16.77;7.10;;;;;;;11.20;61.77;101745.63;5026267;28;115627;-68
2021/10/28 06:13:06;;;;;;;18.40;7.28;;;;;;;11.20;61.93;101747.41;5041304;27;113824;-69
2021/10/28 06:15:35;;;;;;;16.30;7.78;;;;;;;11.18;61.84;101742.16;5022313;28;124149;-68
2021/10/28 06:20:45;;;;;;;16.42;7.40;;;;;;;11.18;61.79;101743.94;5025053;28;114213;-68
2021/10/28 06:23:13;;;;;;;17.08;7.18;;;;;;;11.17;62.01;101742.19;5023110;28;113097;-64
2021/10/28 06:25:40;;;;;;;14.30;7.20;;;;;;;11.18;62.06;101741.28;5026345;28;123824;-65
2021/10/28 06:28:08;;;;;;;17.00;7.38;;;;;;;11.20;62.00;101744.75;5029905;28;124180;-65
2021/10/28 06:30:35;;;;;;;12.50;6.60;;;;;;;11.22;62.06;101742.91;5022538;28;114626;-65
2021/10/28 06:33:10;;;;;;;15.50;7.10;;;;;;;11.23;62.27;101744.66;5022010;28;114572;-68
2021/10/28 06:35:38;;;;;;;;;;;;;;;11.21;61.98;101735.91;5028409;28;123889;-67
2021/10/28 06:38:06;;;;;;;14.63;6.78;;;;;;;11.23;62.08;101734.91;5020705;28;125132;-67
2021/10/28 06:40:33;;;;;;;16.63;7.20;;;;;;;11.23;61.78;101728.75;5025393;28;113438;-67
2021/10/28 06:43:00;;;;;;;11.60;6.88;;;;;;;11.22;61.94;101719.91;5028516;28;113969;-67
2021/10/28 06:45:28;;;;;;;15.70;6.60;;;;;;;11.22;62.09;101732.31;5027331;28;124402;-65
2021/10/28 06:47:57;;;;;;;12.70;6.45;;;;;;;11.22;62.13;101724.34;5022243;28;123916;-65
2021/10/28 06:50:33;;;;;;;11.95;6.68;;;;;;;11.21;61.84;101725.28;5026318;28;114792;-66
2021/10/28 07:03:59;;;;;;;15.05;6.82;;;;;;;11.19;62.23;101732.41;5027286;28;114533;-65
2021/10/28 07:06:28;;;;;;;14.48;6.35;;;;;;;11.19;62.12;101727.09;5026195;28;124075;-65
2021/10/28 07:09:02;;;;;;;11.10;6.15;;;;;;;11.21;62.00;101730.59;5028125;28;123880;-65
2021/10/28 07:11:34;;;;;;;14.52;6.70;;;;;;;11.21;62.13;101725.28;5023992;28;114315;-65
2021/10/28 07:14:05;;;;;;;13.50;6.20;;;;;;;11.22;62.11;101729.66;5020641;28;114028;-65
2021/10/28 07:16:57;;;;;;;14.25;6.40;;;;;;;11.22;62.00;101721.72;5023822;28;123964;-65
2021/10/28 07:19:45;;;;;;;13.60;6.68;;;;;;;11.24;61.85;101719.88;5028449;28;123586;-65
2021/10/28 07:30:20;;;;;;;16.80;6.75;;;;;;;11.35;62.47;101730.97;5024515;28;124040;-64
2021/10/28 08:21:56;;;;;;;14.18;7.30;;;;;;;12.64;62.88;101723.63;5025209;28;125441;-74
2021/10/28 08:29:48;;;;;;;14.93;7.50;;;;;;;12.91;62.93;101718.13;5025641;27;112488;-74
2021/10/28 08:32:16;;;;;;;13.17;7.00;;;;;;;13.01;62.97;101722.13;5028083;28;124463;-74
2021/10/28 08:34:44;;;;;;;14.02;7.18;;;;;;;13.11;62.85;101711.09;5026882;28;124144;-72
2021/10/28 08:37:19;;;;;;;14.80;6.97;;;;;;;13.20;63.04;101705.41;5017245;28;114533;-73
2021/10/28 08:39:49;;;;;;;13.35;6.72;;;;;;;13.28;62.73;101700.66;5024388;28;113804;-74
2021/10/28 08:42:19;;;;;;;14.07;6.72;;;;;;;13.35;62.63;101704.78;5020653;28;123509;-73
2021/10/28 08:44:53;;;;;;;12.23;7.05;;;;;;;13.43;62.69;101697.34;5007583;28;122686;-73
2021/10/28 08:47:23;;;;;;;13.23;6.57;;;;;;;13.52;62.73;101693.41;5009209;28;115432;-74
2021/10/28 08:52:36;;;;;;;13.55;6.88;;;;;;;13.70;62.69;101689.06;5013585;27;124162;-73
2021/10/28 08:55:23;;;;;;;13.48;6.78;;;;;;;13.81;62.46;101696.59;5002535;28;96982;-73
2021/10/28 09:29:14;;;;;;;11.27;6.55;;;;;;;15.07;61.86;101636.38;5026951;28;123845;-74
2021/10/28 09:32:01;;;;;;;12.18;6.70;;;;;;;15.21;61.67;101633.88;5019512;28;114685;-74
2021/10/28 09:51:13;;;;;;;9.05;5.35;;;;;;;16.00;60.77;101611.91;5017614;27;124117;-74
2021/10/28 09:59:31;;;;;;;10.38;6.38;;;;;;;16.32;60.27;101603.88;5022227;28;123758;-74
2021/10/28 10:02:13;;;;;;;11.63;5.63;;;;;;;16.42;60.29;101601.53;5016608;28;124079;-73
2021/10/28 10:04:43;;;;;;;9.27;5.40;;;;;;;16.53;59.92;101602.63;5004102;28;113681;-73
2021/10/28 10:07:11;;;;;;;8.52;5.82;;;;;;;16.63;59.94;101604.78;5032468;28;115321;-73
2021/10/28 10:09:40;;;;;;;9.48;5.70;;;;;;;16.74;59.69;101605.00;5025419;28;123989;-73
2021/10/28 10:12:07;;;;;;;11.23;6.15;;;;;;;16.82;59.48;101600.13;5030054;28;123712;-74
2021/10/28 10:14:36;;;;;;;11.30;6.30;;;;;;;16.90;59.27;101597.84;5028434;28;114486;-73
2021/10/28 10:17:05;;;;;;;9.77;5.75;;;;;;;16.97;59.13;101590.31;5024353;28;113723;-74
2021/10/28 10:19:37;;;;;;;10.98;6.18;;;;;;;17.05;58.85;101584.50;5029172;28;123434;-73
2021/10/28 10:22:17;;;;;;;13.27;5.97;;;;;;;17.10;58.72;101583.25;5011006;28;124309;-73
2021/10/28 11:05:37;;;;;;;10.05;6.10;;;;;;;18.25;57.28;101528.69;5019905;28;123958;-73
2021/10/28 12:22:19;;;;;;;8.82;5.25;;;;;;;19.90;52.66;101402.50;5011488;28;113529;-74
2021/10/28 12:25:11;;;;;;;8.90;5.07;;;;;;;19.98;52.75;101404.63;5010777;28;124287;-74
2021/10/28 12:45:04;;;;;;;8.27;4.85;;;;;;;20.28;51.88;101369.13;5028725;28;114306;-74
2021/10/28 12:48:02;;;;;;;9.40;5.28;;;;;;;20.31;51.78;101368.91;5024155;28;124822;-73
2021/10/28 12:50:46;;;;;;;13.20;5.80;;;;;;;20.36;51.47;101372.09;5027406;28;124191;-74
2021/10/28 12:56:21;;;;;;;9.40;5.32;;;;;;;20.43;51.74;101362.53;5029886;27;112992;-74
2021/10/28 13:08:01;;;;;;;10.85;5.43;;;;;;;20.59;51.26;101350.59;5028272;28;114273;-73
2021/10/28 13:52:46;;;;;;;6.95;4.15;;;;;;;20.75;49.96;101294.56;5003457;28;112275;-74
2021/10/28 14:00:39;;;;;;;7.32;4.40;;;;;;;20.75;49.49;101281.09;5026374;28;114043;-74
2021/10/28 14:20:20;;;;;;;7.05;4.10;;;;;;;20.80;49.25;101262.75;5027724;28;123609;-74
2021/10/28 14:28:22;;;;;;;6.15;4.00;;;;;;;20.80;48.89;101251.97;5024893;28;124418;-73
2021/10/28 15:28:23;;;;;;;6.57;3.08;;;;;;;20.18;48.71;101220.22;5032658;28;113265;-61
2021/10/28 15:36:28;;;;;;;5.45;3.55;;;;;;;20.01;48.71;101206.28;5016162;28;123731;-61
2021/10/28 15:41:58;;;;;;;5.57;3.35;;;;;;;19.91;48.72;101204.41;5018933;28;114441;-62
2021/10/28 15:57:29;;;;;;;6.45;3.47;;;;;;;19.51;48.96;101202.97;5014096;28;123868;-63
2021/10/28 16:00:15;;;;;;;6.32;3.67;;;;;;;19.45;49.12;101203.47;5025800;28;114098;-65
2021/10/28 16:22:04;;;;;;;;;;;;;;;18.83;49.95;101191.97;5027716;28;114587;-65
2021/10/28 16:24:33;;;;;;;12.07;4.30;;;;;;;18.79;49.60;101190.47;5025672;28;113705;-65
2021/10/28 16:27:03;;;;;;;11.07;4.47;;;;;;;18.71;49.78;101192.88;5023579;28;123775;-65
2021/10/28 16:29:31;;;;;;;7.68;3.55;;;;;;;18.64;49.94;101187.09;5018024;28;123893;-65
2021/10/28 16:31:59;;;;;;;8.55;4.25;;;;;;;18.57;49.89;101191.22;4993643;28;113497;-65
2021/10/28 16:34:27;;;;;;;6.85;3.95;;;;;;;18.49;49.88;101191.75;5017932;28;113916;-66
2021/10/28 16:36:56;;;;;;;6.00;3.53;;;;;;;18.41;49.87;101191.44;5009772;28;124180;-65
2021/10/28 16:39:23;;;;;;;6.55;3.63;;;;;;;18.33;50.09;101193.84;5012091;28;123865;-65
2021/10/28 16:41:55;;;;;;;7.35;3.75;;;;;;;18.25;50.07;101190.84;5011693;28;114684;-65
2021/10/28 16:44:23;;;;;;;6.00;3.88;;;;;;;18.18;50.25;101186.91;5011521;28;114214;-65
2021/10/28 16:46:51;;;;;;;6.30;3.90;;;;;;;18.12;50.36;101187.31;5016149;28;124578;-65
2021/10/28 16:49:20;;;;;;;5.97;3.35;;;;;;;18.04;50.31;101183.38;5011053;28;123954;-65
2021/10/28 16:51:48;;;;;;;6.20;3.60;;;;;;;17.98;50.54;101193.69;5018296;28;114018;-65
2021/10/28 16:54:18;;;;;;;5.85;3.30;;;;;;;17.92;50.42;101194.97;5022005;28;113875;-65
2021/10/28 16:56:47;;;;;;;6.55;3.30;;;;;;;17.87;50.38;101191.75;5020176;28;124136;-65
2021/10/28 16:59:14;;;;;;;4.75;3.40;;;;;;;17.81;50.38;101187.63;5012969;28;123801;-65
2021/10/28 17:01:41;;;;;;;6.18;3.40;;;;;;;17.76;50.57;101183.56;5008338;28;115944;-65
2021/10/28 17:04:09;;;;;;;6.97;3.45;;;;;;;17.70;50.55;101175.00;4996539;28;115491;-65
2021/10/28 17:06:36;;;;;;;6.68;3.63;;;;;;;17.67;50.59;101174.38;5018461;28;124396;-65
2021/10/28 17:09:07;;;;;;;6.65;3.90;;;;;;;17.60;50.70;101181.97;5017563;28;123339;-67
2021/10/28 17:11:37;;;;;;;7.22;4.45;;;;;;;17.56;50.80;101179.63;5019455;28;114157;-65
2021/10/28 17:14:06;;;;;;;7.72;4.20;;;;;;;17.52;51.03;101178.97;5016464;28;114646;-65
2021/10/28 17:16:35;;;;;;;8.23;4.72;;;;;;;17.47;50.89;101184.63;5011653;28;124619;-62
2021/10/28 17:19:03;;;;;;;10.65;5.38;;;;;;;17.43;51.00;101179.59;5012176;28;122945;-63
2021/10/28 17:21:31;;;;;;;7.75;4.50;;;;;;;17.37;51.12;101172.84;5010079;28;114120;-63
2021/10/28 17:24:02;;;;;;;7.43;3.90;;;;;;;17.31;51.27;101168.75;5014053;28;113573;-63
2021/10/28 17:26:31;;;;;;;7.38;3.90;;;;;;;17.26;51.23;101165.53;5016995;28;124283;-63
2021/10/28 17:29:01;;;;;;;7.53;4.25;;;;;;;17.23;51.47;101165.72;5015083;28;122884;-63
2021/10/28 17:31:32;;;;;;;7.93;4.40;;;;;;;17.19;51.72;101161.56;5005796;28;113434;-63
2021/10/28 17:34:02;;;;;;;9.27;4.30;;;;;;;17.16;51.63;101169.81;5020085;28;113870;-62
2021/10/28 17:36:30;;;;;;;8.77;4.38;;;;;;;17.12;51.67;101165.59;5016358;28;123780;-63
2021/10/28 17:39:03;;;;;;;6.60;4.30;;;;;;;17.08;51.77;101164.09;5014897;28;123606;-63
2021/10/28 17:41:31;;;;;;;8.95;4.45;;;;;;;17.04;51.88;101154.56;5019224;28;114241;-63
2021/10/28 17:43:59;;;;;;;8.48;5.38;;;;;;;16.99;51.93;101157.56;5009355;28;114467;-62
2021/10/28 17:46:27;;;;;;;16.08;6.50;;;;;;;16.95;51.95;101150.69;4999875;28;123832;-65
2021/10/28 17:48:54;;;;;;;10.82;6.22;;;;;;;16.91;52.08;101160.75;5018084;28;124214;-65
2021/10/28 17:51:23;;;;;;;10.50;6.35;;;;;;;16.88;52.17;101166.31;5024468;28;116066;-65
2021/10/28 17:53:50;;;;;;;8.80;5.65;;;;;;;16.84;52.16;101164.78;5019166;28;114720;-67
2021/10/28 17:56:19;;;;;;;9.05;5.00;;;;;;;16.80;52.41;101168.59;5019730;28;124502;-68
2021/10/28 17:58:47;;;;;;;7.60;4.10;;;;;;;16.77;52.27;101168.78;5021070;28;123671;-65
2021/10/28 18:01:15;;;;;;;8.00;4.25;;;;;;;16.73;52.11;101167.28;5027634;28;112402;-65
2021/10/28 18:03:42;;;;;;;6.35;4.55;;;;;;;16.68;52.31;101169.41;5022176;28;113933;-65
2021/10/28 18:06:10;;;;;;;6.90;4.40;;;;;;;16.64;52.50;101167.88;5024662;28;123418;-65
2021/10/28 18:08:37;;;;;;;9.15;4.63;;;;;;;16.60;52.53;101161.03;5023712;28;123902;-65
2021/10/28 18:11:04;;;;;;;8.82;4.30;;;;;;;16.57;52.58;101166.56;5028092;28;114355;-65
2021/10/28 18:13:31;;;;;;;8.85;4.45;;;;;;;16.52;52.81;101167.72;5019740;28;113937;-65
2021/10/28 18:15:59;;;;;;;11.63;4.80;;;;;;;16.49;52.66;101161.72;5018982;28;124724;-65
2021/10/28 18:18:28;;;;;;;11.30;5.22;;;;;;;16.45;52.78;101163.72;5023455;28;123858;-65
2021/10/28 18:20:59;;;;;;;11.35;4.90;;;;;;;16.41;52.91;101151.53;5025858;28;114252;-65
2021/10/28 18:23:33;;;;;;;6.93;4.13;;;;;;;16.38;53.03;101154.38;5022487;28;114105;-65
2021/10/28 18:26:00;;;;;;;6.65;4.07;;;;;;;16.34;53.07;101151.03;5022903;27;124358;-65
2021/10/28 18:28:28;;;;;;;6.65;4.40;;;;;;;16.32;53.14;101162.81;5015874;28;123437;-65
2021/10/28 18:30:55;;;;;;;7.10;4.45;;;;;;;16.29;53.08;101152.31;5012898;28;114778;-65
2021/10/28 18:33:23;;;;;;;8.38;4.20;;;;;;;16.27;53.21;101162.22;5012685;28;113781;-65
2021/10/28 18:35:51;;;;;;;8.55;4.30;;;;;;;16.24;53.00;101159.78;5017227;28;124388;-65
2021/10/28 18:38:21;;;;;;;6.03;4.15;;;;;;;16.21;53.41;101160.81;5018946;28;124527;-65
2021/10/28 18:40:48;;;;;;;6.47;4.15;;;;;;;16.19;53.44;101156.53;5016826;28;114985;-65
2021/10/28 18:43:17;;;;;;;8.45;4.63;;;;;;;16.17;53.54;101158.44;5022127;28;114799;-65
2021/10/28 18:45:45;;;;;;;10.13;4.28;;;;;;;16.13;53.52;101158.63;5021191;28;123187;-65
2021/10/28 18:48:13;;;;;;;6.85;4.03;;;;;;;16.13;53.56;101152.44;5022057;28;123744;-65
2021/10/28 18:50:40;;;;;;;7.88;4.57;;;;;;;16.11;53.57;101154.34;5020283;28;114109;-65
2021/10/28 18:53:08;;;;;;;6.53;4.40;;;;;;;16.08;53.57;101150.03;5023848;28;113968;-65
2021/10/28 18:55:36;;;;;;;7.72;4.20;;;;;;;16.07;53.85;101148.34;5019418;28;123966;-65
2021/10/28 18:58:03;;;;;;;6.22;4.28;;;;;;;16.03;53.88;101154.84;5007867;28;123855;-65
2021/10/28 19:00:30;;;;;;;9.25;4.55;;;;;;;16.02;53.72;101144.25;5025162;28;114150;-65
2021/10/28 19:02:59;;;;;;;7.32;4.60;;;;;;;16.00;53.94;101152.34;5029239;28;114013;-65
2021/10/28 19:05:27;;;;;;;8.15;4.65;;;;;;;15.99;53.92;101150.63;5021814;28;124046;-68
2021/10/28 19:07:55;;;;;;;7.40;4.53;;;;;;;15.95;53.98;101144.63;5022058;28;124162;-69
2021/10/28 19:10:22;;;;;;;6.38;4.57;;;;;;;15.94;53.92;101142.06;5007810;28;113930;-69
2021/10/28 19:12:54;;;;;;;8.75;5.05;;;;;;;15.92;53.98;101143.97;5031022;28;113740;-65
2021/10/28 19:15:22;;;;;;;9.70;4.95;;;;;;;15.89;54.14;101146.81;5016026;28;124236;-65
2021/10/28 19:17:52;;;;;;;10.60;5.03;;;;;;;15.86;54.04;101133.66;5015096;28;124433;-66
2021/10/28 19:20:20;;;;;;;9.82;5.25;;;;;;;15.84;54.12;101135.56;5022004;28;114097;-65
2021/10/28 19:22:48;;;;;;;10.70;6.40;;;;;;;15.81;54.05;101133.94;5017136;28;113853;-68
2021/10/28 19:25:15;;;;;;;10.45;6.05;;;;;;;15.79;54.13;101127.84;5018696;28;124801;-68
2021/10/28 19:27:42;;;;;;;10.13;5.85;;;;;;;15.75;54.17;101127.16;5025938;28;124904;-69
2021/10/28 19:30:27;;;;;;;9.65;6.45;;;;;;;15.74;54.22;101130.78;5025106;28;115456;-69
2021/10/28 19:32:58;;;;;;;8.35;6.25;;;;;;;15.71;54.09;101130.13;5013429;27;114849;-69
2021/10/28 19:35:28;;;;;;;10.93;5.88;;;;;;;15.69;54.30;101126.66;4975153;28;124323;-69
2021/10/28 19:48:16;;;;;;;7.28;4.88;;;;;;;15.51;54.20;101128.66;4963497;28;125055;-67
2021/10/28 19:50:46;;;;;;;9.15;5.50;;;;;;;15.47;54.23;101127.13;4963768;28;114411;-68
2021/10/28 19:53:14;;;;;;;86.45;36.33;;;;;;;15.43;54.38;101125.63;4964159;28;113974;-68
2021/10/28 19:55:42;;;;;;;65.00;32.63;;;;;;;15.39;54.64;101119.59;4959187;28;125936;-68
2021/10/28 19:58:15;;;;;;;13.35;8.75;;;;;;;15.34;54.58;101122.53;4960971;28;123990;-68
2021/10/28 20:00:48;;;;;;;15.65;13.68;;;;;;;15.32;54.57;101124.44;4962945;28;113262;-68
2021/10/28 20:06:06;;;;;;;8.00;5.35;;;;;;;15.27;54.75;101121.19;4964745;28;124098;-68
2021/10/28 20:13:08;;;;;;;9.85;6.25;;;;;;;15.24;54.83;101120.50;4959801;28;124229;-68